sensor_id;sensor_type;location;lat;lon;timestamp;pressure;altitude;pressure_sealevel;temperature;humidity
16194;BME280;8204;53.582;10.080;2023-05-07T00:01:14;101732.31;;;11.63;100.00
16194;BME280;8204;53.582;10.080;2023-05-07T00:03:43;101727.22;;;11.62;100.00
16194;BME280;8204;53.582;10.080;2023-05-07T00:06:12;101733.97;;;11.64;100.00
16194;BME280;8204;53.582;10.080;2023-05-07T00:08:43;101735.91;;;11.62;100.00
16194;BME280;8204;53.582;10.080;2023-05-07T00:11:12;101742.81;;;11.63;100.00
16194;BME280;8204;53.582;10.080;2023-05-07T00:13:41;101727.75;;;11.65;100.00
16194;BME280;8204;53.582;10.080;2023-05-07T00:16:10;101732.31;;;11.63;100.00
16194;BME280;8204;53.582;10.080;2023-05-07T00:18:40;101730.38;;;11.65;100.00
16194;BME280;8204;53.582;10.080;2023-05-07T00:21:10;101730.09;;;11.68;100.00
16194;BME280;8204;53.582;10.080;2023-05-07T00:23:39;101728.16;;;11.70;100.00
16194;BME280;8204;53.582;10.080;2023-05-07T00:26:11;101724.56;;;11.71;100.00
16194;BME280;8204;53.582;10.080;2023-05-07T00:28:40;101727.03;;;11.72;100.00
16194;BME280;8204;53.582;10.080;2023-05-07T00:31:09;101725.94;;;11.75;100.00
16194;BME280;8204;53.582;10.080;2023-05-07T00:33:38;101731.75;;;11.69;100.00
16194;BME280;8204;53.582;10.080;2023-05-07T00:36:07;101721.09;;;11.70;100.00
16194;BME280;8204;53.582;10.080;2023-05-07T00:38:36;101729.13;;;11.69;100.00
16194;BME280;8204;53.582;10.080;2023-05-07T00:41:07;101722.91;;;11.70;100.00
16194;BME280;8204;53.582;10.080;2023-05-07T00:43:41;101714.06;;;11.71;100.00
16194;BME280;8204;53.582;10.080;2023-05-07T00:46:11;101719.00;;;11.74;100.00
16194;BME280;8204;53.582;10.080;2023-05-07T00:48:43;101724.16;;;11.75;100.00
16194;BME280;8204;53.582;10.080;2023-05-07T00:51:12;101719.31;;;11.71;100.00
16194;BME280;8204;53.582;10.080;2023-05-07T00:53:41;101710.31;;;11.73;100.00
16194;BME280;8204;53.582;10.080;2023-05-07T00:56:10;101716.13;;;11.77;100.00
16194;BME280;8204;53.582;10.080;2023-05-07T00:58:42;101713.22;;;11.80;100.00
16194;BME280;8204;53.582;10.080;2023-05-07T01:01:11;101716.13;;;11.77;100.00
16194;BME280;8204;53.582;10.080;2023-05-07T01:03:42;101708.41;;;11.75;100.00
16194;BME280;8204;53.582;10.080;2023-05-07T01:06:12;101713.75;;;11.74;100.00
16194;BME280;8204;53.582;10.080;2023-05-07T01:08:43;101712.94;;;11.73;100.00
16194;BME280;8204;53.582;10.080;2023-05-07T01:11:12;101717.38;;;11.73;100.00
16194;BME280;8204;53.582;10.080;2023-05-07T01:13:44;101717.50;;;11.71;100.00
16194;BME280;8204;53.582;10.080;2023-05-07T01:16:13;101723.72;;;11.70;100.00
16194;BME280;8204;53.582;10.080;2023-05-07T01:18:42;101730.94;;;11.68;100.00
16194;BME280;8204;53.582;10.080;2023-05-07T01:21:15;101729.13;;;11.69;100.00
16194;BME280;8204;53.582;10.080;2023-05-07T01:23:48;101726.66;;;11.67;100.00
16194;BME280;8204;53.582;10.080;2023-05-07T01:26:17;101728.44;;;11.67;100.00
16194;BME280;8204;53.582;10.080;2023-05-07T01:28:47;101719.03;;;11.64;100.00
16194;BME280;8204;53.582;10.080;2023-05-07T01:31:17;101718.78;;;11.67;100.00
16194;BME280;8204;53.582;10.080;2023-05-07T01:33:48;101719.88;;;11.65;100.00
16194;BME280;8204;53.582;10.080;2023-05-07T01:36:18;101717.53;;;11.62;100.00
16194;BME280;8204;53.582;10.080;2023-05-07T01:38:52;101716.31;;;11.57;100.00
16194;BME280;8204;53.582;10.080;2023-05-07T01:41:24;101718.78;;;11.58;100.00
16194;BME280;8204;53.582;10.080;2023-05-07T01:43:54;101714.91;;;11.62;100.00
16194;BME280;8204;53.582;10.080;2023-05-07T01:46:24;101713.94;;;11.63;100.00
16194;BME280;8204;53.582;10.080;2023-05-07T01:48:54;101724.03;;;11.67;100.00
16194;BME280;8204;53.582;10.080;2023-05-07T01:51:24;101725.13;;;11.65;100.00
16194;BME280;8204;53.582;10.080;2023-05-07T01:53:55;101718.50;;;11.61;100.00
16194;BME280;8204;53.582;10.080;2023-05-07T01:56:25;101726.50;;;11.60;100.00
16194;BME280;8204;53.582;10.080;2023-05-07T01:58:53;101714.09;;;11.62;100.00
16194;BME280;8204;53.582;10.080;2023-05-07T02:01:22;101723.75;;;11.61;100.00
16194;BME280;8204;53.582;10.080;2023-05-07T02:03:51;101729.28;;;11.58;100.00
16194;BME280;8204;53.582;10.080;2023-05-07T02:06:20;101725.16;;;11.56;100.00
16194;BME280;8204;53.582;10.080;2023-05-07T02:08:49;101726.50;;;11.60;100.00
16194;BME280;8204;53.582;10.080;2023-05-07T02:11:20;101730.25;;;11.57;100.00
16194;BME280;8204;53.582;10.080;2023-05-07T02:13:49;101734.53;;;11.58;100.00
16194;BME280;8204;53.582;10.080;2023-05-07T02:16:19;101734.81;;;11.55;100.00
16194;BME280;8204;53.582;10.080;2023-05-07T02:18:49;101734.81;;;11.55;100.00
16194;BME280;8204;53.582;10.080;2023-05-07T02:21:17;101731.53;;;11.53;100.00
16194;BME280;8204;53.582;10.080;2023-05-07T02:23:47;101726.50;;;11.50;100.00
16194;BME280;8204;53.582;10.080;2023-05-07T02:26:16;101734.25;;;11.52;100.00
16194;BME280;8204;53.582;10.080;2023-05-07T02:28:48;101725.56;;;11.51;100.00
16194;BME280;8204;53.582;10.080;2023-05-07T02:31:17;101729.44;;;11.47;100.00
16194;BME280;8204;53.582;10.080;2023-05-07T02:33:46;101736.44;;;11.47;100.00
16194;BME280;8204;53.582;10.080;2023-05-07T02:36:15;101735.78;;;11.54;100.00
16194;BME280;8204;53.582;10.080;2023-05-07T02:38:44;101736.06;;;11.51;100.00
16194;BME280;8204;53.582;10.080;2023-05-07T02:41:13;101727.91;;;11.54;100.00
16194;BME280;8204;53.582;10.080;2023-05-07T02:43:42;101728.19;;;11.51;100.00
16194;BME280;8204;53.582;10.080;2023-05-07T02:46:13;101730.53;;;11.54;100.00
16194;BME280;8204;53.582;10.080;2023-05-07T02:48:42;101737.44;;;11.55;100.00
16194;BME280;8204;53.582;10.080;2023-05-07T02:51:11;101742.25;;;11.50;100.00
16194;BME280;8204;53.582;10.080;2023-05-07T02:53:40;101742.81;;;11.44;100.00
16194;BME280;8204;53.582;10.080;2023-05-07T02:56:08;101743.63;;;11.45;100.00
16194;BME280;8204;53.582;10.080;2023-05-07T02:58:37;101752.50;;;11.34;100.00
16194;BME280;8204;53.582;10.080;2023-05-07T03:01:08;101746.56;;;11.32;100.00
16194;BME280;8204;53.582;10.080;2023-05-07T03:03:40;101741.56;;;11.29;100.00
16194;BME280;8204;53.582;10.080;2023-05-07T03:06:11;101739.78;;;11.39;100.00
16194;BME280;8204;53.582;10.080;2023-05-07T03:08:41;101744.19;;;11.39;100.00
16194;BME280;8204;53.582;10.080;2023-05-07T03:11:09;101739.63;;;11.41;100.00
16194;BME280;8204;53.582;10.080;2023-05-07T03:13:38;101748.06;;;11.35;100.00
16194;BME280;8204;53.582;10.080;2023-05-07T03:16:08;101752.22;;;11.37;100.00
16194;BME280;8204;53.582;10.080;2023-05-07T03:18:40;101751.25;;;11.38;100.00
16194;BME280;8204;53.582;10.080;2023-05-07T03:21:09;101739.22;;;11.36;100.00
16194;BME280;8204;53.582;10.080;2023-05-07T03:23:38;101749.16;;;11.42;100.00
16194;BME280;8204;53.582;10.080;2023-05-07T03:26:08;101753.31;;;11.44;100.00
16194;BME280;8204;53.582;10.080;2023-05-07T03:28:36;101745.19;;;11.47;100.00
16194;BME280;8204;53.582;10.080;2023-05-07T03:31:06;101746.13;;;11.46;100.00
16194;BME280;8204;53.582;10.080;2023-05-07T03:33:34;101746.69;;;11.50;100.00
16194;BME280;8204;53.582;10.080;2023-05-07T03:36:06;101757.44;;;11.47;100.00
16194;BME280;8204;53.582;10.080;2023-05-07T03:38:36;101758.72;;;11.43;100.00
16194;BME280;8204;53.582;10.080;2023-05-07T03:41:05;101761.03;;;11.46;100.00
16194;BME280;8204;53.582;10.080;2023-05-07T03:43:33;101769.47;;;11.49;100.00
16194;BME280;8204;53.582;10.080;2023-05-07T03:46:02;101754.44;;;11.51;100.00
16194;BME280;8204;53.582;10.080;2023-05-07T03:48:31;101755.25;;;11.52;100.00
16194;BME280;8204;53.582;10.080;2023-05-07T03:51:00;101753.19;;;11.55;100.00
16194;BME280;8204;53.582;10.080;2023-05-07T03:53:31;101758.44;;;11.55;100.00
16194;BME280;8204;53.582;10.080;2023-05-07T03:56:01;101766.59;;;11.52;100.00
16194;BME280;8204;53.582;10.080;2023-05-07T03:58:30;101779.56;;;11.54;100.00
16194;BME280;8204;53.582;10.080;2023-05-07T04:00:58;101773.50;;;11.53;100.00
16194;BME280;8204;53.582;10.080;2023-05-07T04:03:28;101775.44;;;11.51;100.00
16194;BME280;8204;53.582;10.080;2023-05-07T04:05:57;101774.03;;;11.47;100.00
16194;BME280;8204;53.582;10.080;2023-05-07T04:08:26;101778.59;;;11.45;100.00
16194;BME280;8204;53.582;10.080;2023-05-07T04:10:58;101786.63;;;11.44;100.00
16194;BME280;8204;53.582;10.080;2023-05-07T04:13:27;101789.34;;;11.42;100.00
16194;BME280;8204;53.582;10.080;2023-05-07T04:15:56;101790.06;;;11.44;100.00
16194;BME280;8204;53.582;10.080;2023-05-07T04:18:25;101789.78;;;11.47;100.00
16194;BME280;8204;53.582;10.080;2023-05-07T04:20:54;101790.31;;;11.41;100.00
16194;BME280;8204;53.582;10.080;2023-05-07T04:23:22;101797.22;;;11.42;100.00
16194;BME280;8204;53.582;10.080;2023-05-07T04:25:51;101801.25;;;11.37;100.00
16194;BME280;8204;53.582;10.080;2023-05-07T04:28:24;101804.69;;;11.37;100.00
16194;BME280;8204;53.582;10.080;2023-05-07T04:30:53;101812.16;;;11.32;100.00
16194;BME280;8204;53.582;10.080;2023-05-07T04:33:21;101815.34;;;11.26;100.00
16194;BME280;8204;53.582;10.080;2023-05-07T04:35:51;101812.81;;;11.25;100.00
16194;BME280;8204;53.582;10.080;2023-05-07T04:38:20;101807.47;;;11.36;100.00
16194;BME280;8204;53.582;10.080;2023-05-07T04:40:50;101805.50;;;11.38;100.00
16194;BME280;8204;53.582;10.080;2023-05-07T04:43:19;101803.44;;;11.41;100.00
16194;BME280;8204;53.582;10.080;2023-05-07T04:45:52;101803.19;;;11.44;100.00
16194;BME280;8204;53.582;10.080;2023-05-07T04:48:20;101805.25;;;11.50;100.00
16194;BME280;8204;53.582;10.080;2023-05-07T04:50:50;101810.81;;;11.57;100.00
16194;BME280;8204;53.582;10.080;2023-05-07T04:53:20;101798.34;;;11.59;100.00
16194;BME280;8204;53.582;10.080;2023-05-07T04:55:49;101809.00;;;11.57;100.00
16194;BME280;8204;53.582;10.080;2023-05-07T04:58:23;101812.19;;;11.61;100.00
16194;BME280;8204;53.582;10.080;2023-05-07T05:00:55;101810.09;;;11.64;100.00
16194;BME280;8204;53.582;10.080;2023-05-07T05:03:24;101809.97;;;11.65;100.00
16194;BME280;8204;53.582;10.080;2023-05-07T05:05:52;101828.47;;;11.64;100.00
16194;BME280;8204;53.582;10.080;2023-05-07T05:08:22;101821.56;;;11.63;100.00
16194;BME280;8204;53.582;10.080;2023-05-07T05:10:52;101826.41;;;11.58;100.00
16194;BME280;8204;53.582;10.080;2023-05-07T05:13:21;101822.81;;;11.59;100.00
16194;BME280;8204;53.582;10.080;2023-05-07T05:15:51;101826.81;;;11.63;100.00
16194;BME280;8204;53.582;10.080;2023-05-07T05:18:22;101821.31;;;11.66;100.00
16194;BME280;8204;53.582;10.080;2023-05-07T05:20:51;101823.94;;;11.66;100.00
16194;BME280;8204;53.582;10.080;2023-05-07T05:23:20;101828.75;;;11.70;100.00
16194;BME280;8204;53.582;10.080;2023-05-07T05:25:49;101827.94;;;11.70;100.00
16194;BME280;8204;53.582;10.080;2023-05-07T05:28:17;101828.75;;;11.70;100.00
16194;BME280;8204;53.582;10.080;2023-05-07T05:30:46;101820.19;;;11.78;100.00
16194;BME280;8204;53.582;10.080;2023-05-07T05:33:15;101824.75;;;11.76;100.00
16194;BME280;8204;53.582;10.080;2023-05-07T05:35:47;101817.81;;;11.75;100.00
16194;BME280;8204;53.582;10.080;2023-05-07T05:38:16;101817.72;;;11.76;100.00
16194;BME280;8204;53.582;10.080;2023-05-07T05:40:45;101820.44;;;11.75;100.00
16194;BME280;8204;53.582;10.080;2023-05-07T05:43:14;101825.69;;;11.75;100.00
16194;BME280;8204;53.582;10.080;2023-05-07T05:45:43;101826.25;;;11.78;100.00
16194;BME280;8204;53.582;10.080;2023-05-07T05:48:12;101832.34;;;11.79;100.00
16194;BME280;8204;53.582;10.080;2023-05-07T05:50:42;101827.75;;;11.81;100.00
16194;BME280;8204;53.582;10.080;2023-05-07T05:53:13;101840.63;;;11.84;100.00
16194;BME280;8204;53.582;10.080;2023-05-07T05:55:42;101837.16;;;11.83;100.00
16194;BME280;8204;53.582;10.080;2023-05-07T05:58:11;101838.69;;;11.86;100.00
16194;BME280;8204;53.582;10.080;2023-05-07T06:00:41;101848.78;;;11.81;100.00
16194;BME280;8204;53.582;10.080;2023-05-07T06:03:11;101847.53;;;11.85;100.00
16194;BME280;8204;53.582;10.080;2023-05-07T06:05:39;101856.78;;;11.89;100.00
16194;BME280;8204;53.582;10.080;2023-05-07T06:08:09;101857.50;;;11.91;100.00
16194;BME280;8204;53.582;10.080;2023-05-07T06:10:40;101864.41;;;11.92;100.00
16194;BME280;8204;53.582;10.080;2023-05-07T06:13:09;101869.09;;;11.88;100.00
16194;BME280;8204;53.582;10.080;2023-05-07T06:15:39;101859.16;;;11.92;100.00
16194;BME280;8204;53.582;10.080;2023-05-07T06:18:07;101866.72;;;11.95;100.00
16194;BME280;8204;53.582;10.080;2023-05-07T06:20:37;101872.69;;;11.97;100.00
16194;BME280;8204;53.582;10.080;2023-05-07T06:23:06;101868.81;;;11.91;100.00
16194;BME280;8204;53.582;10.080;2023-05-07T06:25:35;101872.00;;;11.95;100.00
16194;BME280;8204;53.582;10.080;2023-05-07T06:28:06;101873.94;;;11.83;100.00
16194;BME280;8204;53.582;10.080;2023-05-07T06:30:37;101868.16;;;11.89;100.00
16194;BME280;8204;53.582;10.080;2023-05-07T06:33:06;101874.50;;;11.96;100.00
16194;BME280;8204;53.582;10.080;2023-05-07T06:35:35;101870.88;;;11.97;100.00
16194;BME280;8204;53.582;10.080;2023-05-07T06:38:05;101874.06;;;12.01;100.00
16194;BME280;8204;53.582;10.080;2023-05-07T06:40:33;101875.88;;;12.00;100.00
16194;BME280;8204;53.582;10.080;2023-05-07T06:43:02;101867.13;;;12.00;100.00
16194;BME280;8204;53.582;10.080;2023-05-07T06:45:34;101864.94;;;12.05;100.00
16194;BME280;8204;53.582;10.080;2023-05-07T06:48:03;101865.59;;;12.07;100.00
16194;BME280;8204;53.582;10.080;2023-05-07T06:50:33;101873.09;;;12.02;100.00
16194;BME280;8204;53.582;10.080;2023-05-07T06:53:02;101877.22;;;12.04;100.00
16194;BME280;8204;53.582;10.080;2023-05-07T06:55:31;101876.13;;;12.07;100.00
16194;BME280;8204;53.582;10.080;2023-05-07T06:58:00;101877.78;;;12.08;100.00
16194;BME280;8204;53.582;10.080;2023-05-07T07:00:29;101878.47;;;12.10;100.00
16194;BME280;8204;53.582;10.080;2023-05-07T07:03:01;101881.50;;;12.15;100.00
16194;BME280;8204;53.582;10.080;2023-05-07T07:05:30;101886.59;;;12.16;100.00
16194;BME280;8204;53.582;10.080;2023-05-07T07:07:59;101886.34;;;12.19;100.00
16194;BME280;8204;53.582;10.080;2023-05-07T07:10:28;101886.06;;;12.22;100.00
16194;BME280;8204;53.582;10.080;2023-05-07T07:12:57;101892.00;;;12.24;100.00
16194;BME280;8204;53.582;10.080;2023-05-07T07:15:26;101893.41;;;12.19;100.00
16194;BME280;8204;53.582;10.080;2023-05-07T07:17:55;101889.66;;;12.31;100.00
16194;BME280;8204;53.582;10.080;2023-05-07T07:20:26;101888.09;;;12.38;100.00
16194;BME280;8204;53.582;10.080;2023-05-07T07:22:56;101887.00;;;12.40;100.00
16194;BME280;8204;53.582;10.080;2023-05-07T07:25:26;101894.16;;;12.47;100.00
16194;BME280;8204;53.582;10.080;2023-05-07T07:27:54;101881.72;;;12.49;100.00
16194;BME280;8204;53.582;10.080;2023-05-07T07:30:24;101890.56;;;12.48;100.00
16194;BME280;8204;53.582;10.080;2023-05-07T07:32:52;101890.41;;;12.50;100.00
16194;BME280;8204;53.582;10.080;2023-05-07T07:35:28;101885.97;;;12.60;100.00
16194;BME280;8204;53.582;10.080;2023-05-07T07:37:57;101875.56;;;12.68;100.00
16194;BME280;8204;53.582;10.080;2023-05-07T07:40:28;101875.94;;;12.73;100.00
16194;BME280;8204;53.582;10.080;2023-05-07T07:42:57;101890.88;;;12.72;100.00
16194;BME280;8204;53.582;10.080;2023-05-07T07:45:27;101886.16;;;12.76;100.00
16194;BME280;8204;53.582;10.080;2023-05-07T07:47:55;101886.13;;;12.85;100.00
16194;BME280;8204;53.582;10.080;2023-05-07T07:50:24;101902.03;;;12.93;100.00
16194;BME280;8204;53.582;10.080;2023-05-07T07:52:56;101909.50;;;12.98;100.00
16194;BME280;8204;53.582;10.080;2023-05-07T07:55:27;101917.25;;;12.99;100.00
16194;BME280;8204;53.582;10.080;2023-05-07T07:57:56;101927.78;;;12.99;100.00
16194;BME280;8204;53.582;10.080;2023-05-07T08:00:25;101910.03;;;13.01;100.00
16194;BME280;8204;53.582;10.080;2023-05-07T08:02:54;101917.78;;;13.03;100.00
16194;BME280;8204;53.582;10.080;2023-05-07T08:05:24;101919.06;;;12.99;100.00
16194;BME280;8204;53.582;10.080;2023-05-07T08:07:56;101919.75;;;12.91;100.00
16194;BME280;8204;53.582;10.080;2023-05-07T08:10:26;101919.06;;;12.99;100.00
16194;BME280;8204;53.582;10.080;2023-05-07T08:12:55;101926.66;;;13.02;100.00
16194;BME280;8204;53.582;10.080;2023-05-07T08:15:24;101923.75;;;13.05;100.00
16194;BME280;8204;53.582;10.080;2023-05-07T08:17:53;101928.84;;;13.06;100.00
16194;BME280;8204;53.582;10.080;2023-05-07T08:20:24;101928.16;;;13.13;100.00
16194;BME280;8204;53.582;10.080;2023-05-07T08:22:56;101932.94;;;13.18;100.00
16194;BME280;8204;53.582;10.080;2023-05-07T08:25:24;101944.38;;;13.09;100.00
16194;BME280;8204;53.582;10.080;2023-05-07T08:27:53;101938.75;;;13.21;100.00
16194;BME280;8204;53.582;10.080;2023-05-07T08:30:23;101940.66;;;13.29;100.00
16194;BME280;8204;53.582;10.080;2023-05-07T08:32:52;101938.56;;;13.32;100.00
16194;BME280;8204;53.582;10.080;2023-05-07T08:35:21;101936.75;;;13.33;100.00
16194;BME280;8204;53.582;10.080;2023-05-07T08:37:51;101939.09;;;13.36;100.00
16194;BME280;8204;53.582;10.080;2023-05-07T08:40:24;101943.13;;;13.30;100.00
16194;BME280;8204;53.582;10.080;2023-05-07T08:42:56;101950.88;;;13.32;100.00
16194;BME280;8204;53.582;10.080;2023-05-07T08:45:28;101954.91;;;13.36;100.00
16194;BME280;8204;53.582;10.080;2023-05-07T08:48:02;101945.03;;;13.38;100.00
16194;BME280;8204;53.582;10.080;2023-05-07T08:50:35;101960.09;;;13.45;100.00
16194;BME280;8204;53.582;10.080;2023-05-07T08:53:04;101962.16;;;13.51;100.00
16194;BME280;8204;53.582;10.080;2023-05-07T08:55:36;101964.25;;;13.48;100.00
16194;BME280;8204;53.582;10.080;2023-05-07T08:58:05;101966.03;;;13.47;100.00
16194;BME280;8204;53.582;10.080;2023-05-07T09:00:35;101970.97;;;13.60;100.00
16194;BME280;8204;53.582;10.080;2023-05-07T09:03:05;101980.38;;;13.62;100.00
16194;BME280;8204;53.582;10.080;2023-05-07T09:05:34;101974.88;;;13.56;100.00
16194;BME280;8204;53.582;10.080;2023-05-07T09:08:05;101980.53;;;13.61;100.00
16194;BME280;8204;53.582;10.080;2023-05-07T09:10:38;101984.34;;;13.66;100.00
16194;BME280;8204;53.582;10.080;2023-05-07T09:13:06;101982.78;;;13.73;100.00
16194;BME280;8204;53.582;10.080;2023-05-07T09:15:36;101984.16;;;13.77;100.00
16194;BME280;8204;53.582;10.080;2023-05-07T09:18:05;101982.16;;;13.88;100.00
16194;BME280;8204;53.582;10.080;2023-05-07T09:20:33;101986.81;;;13.94;100.00
16194;BME280;8204;53.582;10.080;2023-05-07T09:23:05;101995.25;;;13.98;100.00
16194;BME280;8204;53.582;10.080;2023-05-07T09:25:38;101996.88;;;13.99;100.00
16194;BME280;8204;53.582;10.080;2023-05-07T09:28:07;101992.25;;;14.10;100.00
16194;BME280;8204;53.582;10.080;2023-05-07T09:30:36;101997.44;;;14.20;100.00
16194;BME280;8204;53.582;10.080;2023-05-07T09:33:06;102004.16;;;14.14;100.00
16194;BME280;8204;53.582;10.080;2023-05-07T09:35:34;101996.63;;;14.19;100.00
16194;BME280;8204;53.582;10.080;2023-05-07T09:38:04;102004.69;;;14.18;100.00
16194;BME280;8204;53.582;10.080;2023-05-07T09:40:33;102002.97;;;14.26;100.00
16194;BME280;8204;53.582;10.080;2023-05-07T09:43:13;102007.19;;;14.37;100.00
16194;BME280;8204;53.582;10.080;2023-05-07T09:45:42;102005.06;;;14.40;100.00
16194;BME280;8204;53.582;10.080;2023-05-07T09:48:12;102008.16;;;14.36;100.00
16194;BME280;8204;53.582;10.080;2023-05-07T09:50:48;102012.22;;;14.30;100.00
16194;BME280;8204;53.582;10.080;2023-05-07T09:53:17;102022.91;;;14.29;100.00
16194;BME280;8204;53.582;10.080;2023-05-07T09:55:46;102021.50;;;14.34;100.00
16194;BME280;8204;53.582;10.080;2023-05-07T09:58:18;102010.09;;;14.34;100.00
16194;BME280;8204;53.582;10.080;2023-05-07T10:00:50;102013.25;;;14.37;100.00
16194;BME280;8204;53.582;10.080;2023-05-07T10:03:20;102020.81;;;14.32;100.00
16194;BME280;8204;53.582;10.080;2023-05-07T10:05:51;102028.94;;;14.39;100.00
16194;BME280;8204;53.582;10.080;2023-05-07T10:08:21;102020.28;;;14.46;100.00
16194;BME280;8204;53.582;10.080;2023-05-07T10:10:50;102036.09;;;14.46;100.00
16194;BME280;8204;53.582;10.080;2023-05-07T10:13:21;102026.38;;;14.47;100.00
16194;BME280;8204;53.582;10.080;2023-05-07T10:15:51;102031.34;;;14.50;100.00
16194;BME280;8204;53.582;10.080;2023-05-07T10:18:22;102022.59;;;14.49;100.00
16194;BME280;8204;53.582;10.080;2023-05-07T10:21:01;102025.28;;;14.57;100.00
16194;BME280;8204;53.582;10.080;2023-05-07T10:23:31;102025.66;;;14.62;100.00
16194;BME280;8204;53.582;10.080;2023-05-07T10:26:02;102027.69;;;14.68;100.00
16194;BME280;8204;53.582;10.080;2023-05-07T10:28:38;102022.47;;;14.76;100.00
16194;BME280;8204;53.582;10.080;2023-05-07T10:31:33;102024.38;;;14.91;100.00
16194;BME280;8204;53.582;10.080;2023-05-07T10:34:07;102034.81;;;14.93;100.00
16194;BME280;8204;53.582;10.080;2023-05-07T10:36:37;102021.28;;;14.96;100.00
16194;BME280;8204;53.582;10.080;2023-05-07T10:39:06;102028.22;;;14.97;100.00
16194;BME280;8204;53.582;10.080;2023-05-07T10:41:35;102038.22;;;15.11;100.00
16194;BME280;8204;53.582;10.080;2023-05-07T10:44:06;102029.50;;;15.18;100.00
16194;BME280;8204;53.582;10.080;2023-05-07T10:46:36;102036.00;;;15.24;100.00
16194;BME280;8204;53.582;10.080;2023-05-07T10:49:08;102034.69;;;15.28;100.00
16194;BME280;8204;53.582;10.080;2023-05-07T10:51:38;102031.81;;;15.38;100.00
16194;BME280;8204;53.582;10.080;2023-05-07T10:54:22;102029.50;;;15.43;100.00
16194;BME280;8204;53.582;10.080;2023-05-07T10:56:54;102037.28;;;15.45;100.00
16194;BME280;8204;53.582;10.080;2023-05-07T10:59:46;102028.91;;;15.57;100.00
16194;BME280;8204;53.582;10.080;2023-05-07T11:02:15;102038.38;;;15.68;100.00
16194;BME280;8204;53.582;10.080;2023-05-07T11:04:45;102026.78;;;15.69;100.00
16194;BME280;8204;53.582;10.080;2023-05-07T11:07:23;102030.63;;;15.74;100.00
16194;BME280;8204;53.582;10.080;2023-05-07T11:09:59;102028.66;;;15.76;100.00
16194;BME280;8204;53.582;10.080;2023-05-07T11:12:48;102031.97;;;15.86;100.00
16194;BME280;8204;53.582;10.080;2023-05-07T11:15:36;102024.72;;;15.96;100.00
16194;BME280;8204;53.582;10.080;2023-05-07T11:18:05;102035.31;;;16.04;100.00
16194;BME280;8204;53.582;10.080;2023-05-07T11:20:53;102033.03;;;16.09;100.00
16194;BME280;8204;53.582;10.080;2023-05-07T11:26:46;102039.97;;;16.26;100.00
16194;BME280;8204;53.582;10.080;2023-05-07T11:29:17;102026.44;;;16.37;100.00
16194;BME280;8204;53.582;10.080;2023-05-07T11:31:51;102037.38;;;16.50;100.00
16194;BME280;8204;53.582;10.080;2023-05-07T11:34:21;102037.06;;;16.61;100.00
16194;BME280;8204;53.582;10.080;2023-05-07T11:36:51;102035.06;;;16.71;100.00
16194;BME280;8204;53.582;10.080;2023-05-07T11:39:29;102040.84;;;16.82;100.00
16194;BME280;8204;53.582;10.080;2023-05-07T11:42:00;102034.69;;;16.89;100.00
16194;BME280;8204;53.582;10.080;2023-05-07T11:44:42;102032.03;;;16.97;100.00
16194;BME280;8204;53.582;10.080;2023-05-07T11:47:20;102033.03;;;17.04;100.00
16194;BME280;8204;53.582;10.080;2023-05-07T11:49:50;102029.88;;;17.09;100.00
16194;BME280;8204;53.582;10.080;2023-05-07T11:52:22;102024.88;;;17.22;100.00
16194;BME280;8204;53.582;10.080;2023-05-07T11:54:52;102024.53;;;17.25;100.00
16194;BME280;8204;53.582;10.080;2023-05-07T11:57:22;102022.38;;;17.36;100.00
16194;BME280;8204;53.582;10.080;2023-05-07T11:59:53;102028.16;;;17.40;100.00
16194;BME280;8204;53.582;10.080;2023-05-07T12:02:24;102020.03;;;17.41;100.00
16194;BME280;8204;53.582;10.080;2023-05-07T12:04:54;102025.78;;;17.53;100.00
16194;BME280;8204;53.582;10.080;2023-05-07T12:07:24;102018.59;;;17.69;100.00
16194;BME280;8204;53.582;10.080;2023-05-07T12:09:53;102024.84;;;17.76;100.00
16194;BME280;8204;53.582;10.080;2023-05-07T12:12:22;102020.63;;;17.89;100.00
16194;BME280;8204;53.582;10.080;2023-05-07T12:14:52;102027.00;;;18.03;100.00
16194;BME280;8204;53.582;10.080;2023-05-07T12:17:24;102023.66;;;18.09;100.00
16194;BME280;8204;53.582;10.080;2023-05-07T12:19:54;102022.19;;;18.06;100.00
16194;BME280;8204;53.582;10.080;2023-05-07T12:22:23;102021.28;;;18.14;100.00
16194;BME280;8204;53.582;10.080;2023-05-07T12:24:57;102026.59;;;18.22;100.00
16194;BME280;8204;53.582;10.080;2023-05-07T12:27:26;102020.47;;;18.21;100.00
16194;BME280;8204;53.582;10.080;2023-05-07T12:29:57;102020.94;;;18.25;100.00
16194;BME280;8204;53.582;10.080;2023-05-07T12:32:30;102022.22;;;18.29;100.00
16194;BME280;8204;53.582;10.080;2023-05-07T12:35:02;102036.25;;;18.37;100.00
16194;BME280;8204;53.582;10.080;2023-05-07T12:37:32;102032.97;;;18.35;100.00
16194;BME280;8204;53.582;10.080;2023-05-07T12:40:04;102028.47;;;18.35;100.00
16194;BME280;8204;53.582;10.080;2023-05-07T12:42:36;102035.06;;;18.39;100.00
16194;BME280;8204;53.582;10.080;2023-05-07T12:45:09;102037.00;;;18.45;100.00
16194;BME280;8204;53.582;10.080;2023-05-07T12:47:43;102031.44;;;18.55;100.00
16194;BME280;8204;53.582;10.080;2023-05-07T12:50:12;102033.19;;;18.48;100.00
16194;BME280;8204;53.582;10.080;2023-05-07T12:52:42;102028.63;;;18.56;100.00
16194;BME280;8204;53.582;10.080;2023-05-07T12:55:13;102026.47;;;18.60;100.00
16194;BME280;8204;53.582;10.080;2023-05-07T12:57:45;102037.34;;;18.65;100.00
16194;BME280;8204;53.582;10.080;2023-05-07T13:00:16;102038.59;;;18.54;100.00